Aviation Digital Data Service (ADDS)

Output produced by METARs form (0243 UTC 24 July 2017)
found at http://www.aviationweather.gov/adds/metars/
 
EFET 240220Z AUTO 01002KT CAVOK 09/07 Q1023
EFHA 240220Z AUTO 29006KT 9999 BKN015 11/11 Q1014
TAF EFHA 240230Z 2403/2412 32006KT 9000 -RA BKN015 
     BECMG 2403/2405 BKN013 
     TEMPO 2405/2410 BKN009
       
EFHK 240220Z 30003KT CAVOK 10/09 Q1013 NOSIG
TAF EFHK 240234Z 2403/2503 33005KT CAVOK
       
EFIV 240220Z AUTO 04007KT 7000 OVC003 09/08 Q1023
EFJO 240220Z AUTO 34007KT 310V020 9999 -SHRA OVC007 13/12 Q1011
TAF EFJO 240233Z 2403/2409 36007KT 9999 -RA BKN006 
     TEMPO 2407/2409 BKN010
       
EFJY 240220Z AUTO 34006KT 9999 -RA VCSH BKN007 OVC027 13/12 Q1013
TAF EFJY 240230Z 2403/2503 35007KT 9999 -RA SCT007 BKN012 
     TEMPO 2403/2410 7000 -RADZ BKN008 
     BECMG 2412/2414 BKN016 
     BECMG 2500/2502 BKN005
       
EFKI 240220Z AUTO 05007KT 020V100 9999 OVC015 13/10 Q1014
EFKE 240220Z 01006KT CAVOK 12/10 Q1017
TAF EFKE 240226Z 2403/2412 01006KT CAVOK
       
EFKT 240220Z AUTO 36007KT CAVOK 11/08 Q1021
TAF EFKT 240226Z 2403/2407 36007KT CAVOK
       
EFKK 240220Z AUTO 27003KT 9999 -SHRA BKN065 13/13 Q1016
EFKU 240220Z AUTO 34009KT 9999 VCSH BKN009 OVC036 13/12 Q1013
TAF EFKU 240233Z 2403/2503 35009KT 9999 BKN010 
     TEMPO 2403/2406 BKN008 
     TEMPO 2406/2408 7000 -DZRA BKN008 
     BECMG 2411/2413 BKN015 
     BECMG 2422/2500 -RA BKN006
       
EFKS 240220Z AUTO 36005KT 300V100 CAVOK 11/08 Q1016
EFLP 240220Z AUTO 32007KT 270V040 9999 OVC009 13/12 Q1011
EFMA 240220Z AUTO 34004KT 8000 BCFG SCT002 10/10 Q1015
TAF EFMA 240234Z 2403/2412 35004KT 9999 SCT003 
     TEMPO 2403/2406 2000 BR BKN003 
     PROB30 2403/2405 0500 FG BKN001
       
EFMI 240220Z AUTO VRB04KT 9999 -SHRA OVC009 13/12 Q1012
EFOU 240220Z AUTO 04006KT 330V080 9999 FEW100/// 15/10 Q1015
TAF EFOU 240226Z 2403/2503 04006KT CAVOK 
     TEMPO 2406/2410 BKN015
       
EFPO 240220Z AUTO 00000KT CAVOK 11/09 Q1015
TAF EFPO 240230Z 2403/2408 34002KT CAVOK
       
EFRO 240220Z AUTO 03009KT CAVOK 11/08 Q1019
TAF EFRO 240226Z 2403/2503 03009KT CAVOK
       
EFSA 240220Z AUTO 31006KT 9999 -RA OVC007 13/12 Q1011
EFSI 240220Z AUTO 34006KT 310V010 9999 BKN019 BKN034 13/12 Q1016
EFTP 240220Z AUTO 36004KT CAVOK 11/10 Q1015
TAF EFTP 240230Z 2403/2503 36004KT CAVOK 
     TEMPO 2407/2415 BKN012
       
EFTU 240220Z AUTO VRB01KT CAVOK 08/07 Q1014
TAF EFTU 240234Z 2403/2503 35003KT CAVOK
       
EFUT 240220Z AUTO 31007KT 270V340 9999 OVC016 13/11 Q1012
TAF EFUT 240233Z 2403/2412 32005KT 9999 BKN015 
     BECMG 2403/2405 BKN009 
     TEMPO 2410/2412 BKN012
       
EFVA 240220Z AUTO 35005KT 9999 BKN028/// BKN043/// OVC085/// 13/12 Q1016
TAF EFVA 240234Z 2403/2503 35006KT 9999 -RA BKN030 
     PROB40 
     TEMPO 2403/2405 7000 RA